createdAt,value
2023-03-16T00:03:34.275Z,99545.75
2023-03-16T00:06:21.891Z,99544.97
2023-03-16T00:09:10.097Z,99555.59
2023-03-16T00:12:03.336Z,99565.38
2023-03-16T00:14:51.457Z,99558.69
2023-03-16T00:17:38.541Z,99562.81
2023-03-16T00:20:25.791Z,99569.75
2023-03-16T00:23:12.922Z,99571.41
2023-03-16T00:26:00.497Z,99574.13
2023-03-16T00:28:47.532Z,99574.22
2023-03-16T00:31:34.647Z,99575.44
2023-03-16T00:34:23.018Z,99579.88
2023-03-16T00:37:10.436Z,99574.03
2023-03-16T00:39:57.806Z,99591.09
2023-03-16T00:42:44.870Z,99583.22
2023-03-16T00:45:32.809Z,99581.16
2023-03-16T00:48:21.407Z,99595.22
2023-03-16T00:51:13.057Z,99600.44
2023-03-16T00:54:00.143Z,99595.47
2023-03-16T00:56:47.249Z,99598.63
2023-03-16T00:59:36.568Z,99609.72
2023-03-16T01:02:24.853Z,99592.66
2023-03-16T01:05:13.237Z,99590.91
2023-03-16T01:08:02.835Z,99597.13
2023-03-16T01:10:50.010Z,99600.63
2023-03-16T01:13:38.554Z,99607.75
2023-03-16T01:16:25.894Z,99610.16
2023-03-16T01:19:14.582Z,99609.66
2023-03-16T01:22:06.537Z,99618.09
2023-03-16T01:24:53.607Z,99614.66
2023-03-16T01:27:41.000Z,99611.72
2023-03-16T01:30:28.505Z,99619.50
2023-03-16T01:33:15.917Z,99608.09
2023-03-16T01:36:06.282Z,99617.06
2023-03-16T01:38:54.209Z,99620.63
2023-03-16T01:41:42.684Z,99619.19
2023-03-16T01:44:32.836Z,99624.72
2023-03-16T01:47:19.877Z,99636.13
2023-03-16T01:50:07.667Z,99640.41
2023-03-16T01:52:54.881Z,99626.59
2023-03-16T01:55:42.966Z,99634.16
2023-03-16T01:58:31.655Z,99625.13
2023-03-16T02:01:18.843Z,99621.72
2023-03-16T02:04:13.543Z,99632.28
2023-03-16T02:07:01.206Z,99624.81
2023-03-16T02:09:52.411Z,99638.81
2023-03-16T02:12:39.689Z,99639.00
2023-03-16T02:15:27.556Z,99641.88
2023-03-16T02:18:15.317Z,99647.75
2023-03-16T02:21:54.787Z,99648.94
2023-03-16T02:24:42.541Z,99649.03
2023-03-16T02:27:51.795Z,99649.88
2023-03-16T02:30:39.202Z,99660.63
2023-03-16T02:33:26.465Z,99645.81
2023-03-16T02:36:15.477Z,99664.97
2023-03-16T02:39:02.517Z,99655.13
2023-03-16T02:41:50.133Z,99674.00
2023-03-16T02:44:40.775Z,99673.88
2023-03-16T02:47:42.252Z,99677.88
2023-03-16T02:50:29.902Z,99684.97
2023-03-16T02:53:18.090Z,99687.50
2023-03-16T02:56:05.477Z,99682.34
2023-03-16T02:58:52.641Z,99681.53
2023-03-16T03:01:40.031Z,99674.66
2023-03-16T03:04:27.197Z,99677.00
2023-03-16T03:07:15.118Z,99694.22
2023-03-16T03:10:03.177Z,99680.50
2023-03-16T03:12:50.226Z,99688.78
2023-03-16T03:15:37.322Z,99699.25
2023-03-16T03:18:34.829Z,99691.53
2023-03-16T03:21:24.033Z,99704.78
2023-03-16T03:24:11.092Z,99703.56
2023-03-16T03:27:00.828Z,99698.38
2023-03-16T03:29:48.066Z,99709.94
2023-03-16T03:32:35.245Z,99715.75
2023-03-16T03:35:22.552Z,99711.66
2023-03-16T03:38:09.754Z,99722.47
2023-03-16T03:40:59.668Z,99730.44
2023-03-16T03:43:46.760Z,99714.94
2023-03-16T03:46:33.947Z,99718.03
2023-03-16T03:49:21.154Z,99705.16
2023-03-16T03:52:08.225Z,99712.03
2023-03-16T03:54:55.361Z,99705.06
2023-03-16T03:57:42.445Z,99716.84
2023-03-16T04:00:29.850Z,99721.28
2023-03-16T04:03:17.816Z,99711.47
2023-03-16T04:06:07.300Z,99722.88
2023-03-16T04:08:54.522Z,99712.75
2023-03-16T04:11:41.686Z,99734.03
2023-03-16T04:14:29.729Z,99744.75
2023-03-16T04:17:17.299Z,99735.72
2023-03-16T04:20:13.379Z,99731.75
2023-03-16T04:23:00.479Z,99755.38
2023-03-16T04:25:47.949Z,99735.88
2023-03-16T04:28:35.186Z,99742.84
2023-03-16T04:31:22.726Z,99748.91
2023-03-16T04:34:10.207Z,99752.03
2023-03-16T04:36:57.522Z,99751.09
2023-03-16T04:39:44.700Z,99758.72
2023-03-16T04:42:31.706Z,99771.94
2023-03-16T04:45:18.812Z,99764.84
2023-03-16T04:48:06.108Z,99759.94
2023-03-16T04:50:53.238Z,99765.94
2023-03-16T04:53:40.290Z,99759.44
2023-03-16T04:56:27.352Z,99769.94
2023-03-16T04:59:14.415Z,99754.72
2023-03-16T05:02:01.497Z,99762.47
2023-03-16T05:04:48.686Z,99768.81
2023-03-16T05:07:35.862Z,99772.00
2023-03-16T05:10:23.168Z,99770.84
2023-03-16T05:13:10.621Z,99768.13
2023-03-16T05:15:57.881Z,99781.94
2023-03-16T05:18:45.027Z,99776.38
2023-03-16T05:21:32.319Z,99787.13
2023-03-16T05:24:19.453Z,99798.75
2023-03-16T05:27:06.530Z,99798.91
2023-03-16T05:29:53.584Z,99801.63
2023-03-16T05:32:40.612Z,99804.31
2023-03-16T05:35:28.215Z,99812.97
2023-03-16T05:38:15.964Z,99809.63
2023-03-16T05:41:05.901Z,99809.31
2023-03-16T05:43:53.239Z,99827.66
2023-03-16T05:46:40.369Z,99823.56
2023-03-16T05:49:27.526Z,99826.19
2023-03-16T05:52:14.587Z,99834.88
2023-03-16T05:55:01.659Z,99821.94
2023-03-16T05:57:48.720Z,99834.88
2023-03-16T06:00:36.059Z,99846.31
2023-03-16T06:03:23.137Z,99850.56
2023-03-16T06:06:10.193Z,99839.91
2023-03-16T06:08:57.344Z,99837.28
2023-03-16T06:11:44.458Z,99828.56
2023-03-16T06:14:31.561Z,99848.53
2023-03-16T06:17:18.605Z,99843.63
2023-03-16T06:20:11.182Z,99846.06
2023-03-16T06:22:58.450Z,99850.50
2023-03-16T06:25:47.938Z,99841.75
2023-03-16T06:28:35.260Z,99828.97
2023-03-16T06:31:22.431Z,99849.94
2023-03-16T06:34:09.603Z,99837.56
2023-03-16T06:36:56.713Z,99848.84
2023-03-16T06:39:44.770Z,99837.72
2023-03-16T06:42:31.936Z,99841.25
2023-03-16T06:45:22.246Z,99839.09
2023-03-16T06:48:10.082Z,99833.84
2023-03-16T06:50:57.171Z,99841.09
2023-03-16T06:53:44.246Z,99839.09
2023-03-16T06:56:31.902Z,99853.16
2023-03-16T06:59:19.210Z,99841.34
2023-03-16T07:02:07.149Z,99850.91
2023-03-16T07:04:54.257Z,99847.25
2023-03-16T07:07:42.937Z,99862.94
2023-03-16T07:10:30.476Z,99859.44
2023-03-16T07:13:18.071Z,99860.22
2023-03-16T07:16:05.364Z,99859.25
2023-03-16T07:18:52.418Z,99855.63
2023-03-16T07:21:40.975Z,99864.00
2023-03-16T07:24:28.043Z,99871.53
2023-03-16T07:27:15.095Z,99846.50
2023-03-16T07:30:02.222Z,99856.78
2023-03-16T07:32:49.995Z,99836.69
2023-03-16T07:35:37.262Z,99811.47
2023-03-16T07:38:24.629Z,99822.53
2023-03-16T07:41:11.679Z,99802.59
2023-03-16T07:43:58.797Z,99815.47
2023-03-16T07:46:45.881Z,99799.44
2023-03-16T07:49:33.016Z,99805.47
2023-03-16T07:52:20.050Z,99812.69
2023-03-16T07:55:07.721Z,99835.31
2023-03-16T07:57:54.722Z,99799.03
2023-03-16T08:00:42.724Z,99811.28
2023-03-16T08:03:30.338Z,99814.84
2023-03-16T08:06:17.556Z,99810.09
2023-03-16T08:09:04.970Z,99822.25
2023-03-16T08:11:52.054Z,99819.00
2023-03-16T08:14:39.107Z,99820.97
2023-03-16T08:17:26.234Z,99800.47
2023-03-16T08:20:15.104Z,99821.81
2023-03-16T08:23:02.257Z,99819.69
2023-03-16T08:25:53.909Z,99818.41
2023-03-16T08:28:41.073Z,99820.53
2023-03-16T08:31:28.912Z,99825.66
2023-03-16T08:34:16.265Z,99811.16
2023-03-16T08:37:04.293Z,99822.88
2023-03-16T08:39:51.714Z,99816.19
2023-03-16T08:42:38.945Z,99807.81
2023-03-16T08:45:26.682Z,99814.50
2023-03-16T08:48:14.484Z,99809.53
2023-03-16T08:51:06.085Z,99816.03
2023-03-16T08:53:54.289Z,99808.91
2023-03-16T08:56:41.389Z,99808.91
2023-03-16T08:59:30.535Z,99819.50
2023-03-16T09:02:17.884Z,99805.63
2023-03-16T09:05:05.281Z,99808.63
2023-03-16T09:07:54.351Z,99817.16
2023-03-16T09:10:41.795Z,99807.56
2023-03-16T09:13:28.986Z,99797.50
2023-03-16T09:16:16.563Z,99824.28
2023-03-16T09:19:04.488Z,99811.50
2023-03-16T09:21:51.562Z,99802.84
2023-03-16T09:24:38.956Z,99811.50
2023-03-16T09:27:25.986Z,99812.75
2023-03-16T09:30:13.711Z,99788.13
2023-03-16T09:33:01.161Z,99796.50
2023-03-16T09:35:48.593Z,99810.88
2023-03-16T09:38:40.957Z,99805.50
2023-03-16T09:41:45.105Z,99788.06
2023-03-16T09:44:48.173Z,99790.31
2023-03-16T09:47:36.840Z,99806.84
2023-03-16T09:50:47.367Z,99802.84
2023-03-16T09:53:39.301Z,99798.59
2023-03-16T09:56:35.444Z,99809.41
2023-03-16T09:59:22.835Z,99802.16
2023-03-16T10:02:51.237Z,99812.44
2023-03-16T10:05:39.666Z,99814.47
2023-03-16T10:08:37.890Z,99818.91
2023-03-16T10:11:38.816Z,99813.75
2023-03-16T10:14:37.313Z,99814.84
2023-03-16T10:17:33.353Z,99789.09
2023-03-16T10:20:23.695Z,99802.50
2023-03-16T10:23:25.438Z,99804.28
2023-03-16T10:26:26.408Z,99808.88
2023-03-16T10:29:14.674Z,99807.59
2023-03-16T10:32:12.629Z,99802.41
2023-03-16T10:35:06.530Z,99800.63
2023-03-16T10:37:53.609Z,99803.38
2023-03-16T10:40:40.767Z,99797.66
2023-03-16T10:43:29.285Z,99805.22
2023-03-16T10:46:16.824Z,99796.16
2023-03-16T10:49:03.988Z,99802.66
2023-03-16T10:51:53.171Z,99795.16
2023-03-16T10:54:48.017Z,99789.81
2023-03-16T10:57:37.074Z,99795.72
2023-03-16T11:00:43.464Z,99788.50
2023-03-16T11:03:38.955Z,99772.41
2023-03-16T11:06:30.909Z,99773.72
2023-03-16T11:09:37.319Z,99753.34
2023-03-16T11:12:31.687Z,99759.84
2023-03-16T11:15:25.769Z,99764.66
2023-03-16T11:18:39.238Z,99761.28
2023-03-16T11:21:38.858Z,99761.28
2023-03-16T11:24:47.902Z,99759.81
2023-03-16T11:28:00.452Z,99751.72
2023-03-16T11:31:04.804Z,99737.78
2023-03-16T11:33:54.413Z,99745.78
2023-03-16T11:37:23.054Z,99732.44
2023-03-16T11:40:29.173Z,99725.59
2023-03-16T11:43:43.682Z,99721.75
2023-03-16T11:46:30.814Z,99723.88
2023-03-16T11:49:45.870Z,99716.66
2023-03-16T11:52:51.355Z,99717.44
2023-03-16T11:55:38.346Z,99709.38
2023-03-16T11:59:00.901Z,99707.53
2023-03-16T12:02:01.252Z,99699.47
2023-03-16T12:05:17.072Z,99697.03
2023-03-16T12:08:54.709Z,99692.03
2023-03-16T12:11:55.184Z,99701.22
2023-03-16T12:14:51.631Z,99682.09
2023-03-16T12:17:41.000Z,99677.75
2023-03-16T12:20:31.873Z,99671.56
2023-03-16T12:23:27.979Z,99669.47
2023-03-16T12:26:17.714Z,99670.16
2023-03-16T12:29:19.508Z,99675.41
2023-03-16T12:33:01.090Z,99672.53
2023-03-16T12:36:29.631Z,99671.59
2023-03-16T12:39:23.722Z,99671.31
2023-03-16T12:42:20.730Z,99652.25
2023-03-16T12:45:21.802Z,99662.78
2023-03-16T12:48:18.918Z,99645.34
2023-03-16T12:51:06.179Z,99652.53
2023-03-16T12:53:55.262Z,99648.50
2023-03-16T12:56:48.328Z,99647.84
2023-03-16T12:59:47.355Z,99653.34
2023-03-16T13:02:37.360Z,99644.63
2023-03-16T13:05:32.358Z,99648.59
2023-03-16T13:08:21.565Z,99596.75
2023-03-16T13:11:11.258Z,99637.72
2023-03-16T13:14:01.213Z,99630.25
2023-03-16T13:16:49.812Z,99624.72
2023-03-16T13:19:38.149Z,99625.56
2023-03-16T13:22:32.270Z,99632.75
2023-03-16T13:25:36.939Z,99617.22
2023-03-16T13:28:29.833Z,99628.81
2023-03-16T13:31:37.562Z,99624.31
2023-03-16T13:34:40.119Z,99620.94
2023-03-16T13:37:29.751Z,99604.53
2023-03-16T13:40:27.823Z,99611.13
2023-03-16T13:43:17.159Z,99611.44
2023-03-16T13:46:22.530Z,99608.25
2023-03-16T13:49:13.474Z,99599.09
2023-03-16T13:52:03.866Z,99582.31
2023-03-16T13:54:52.856Z,99608.56
2023-03-16T13:57:42.580Z,99594.91
2023-03-16T14:00:37.524Z,99608.19
2023-03-16T14:03:33.138Z,99594.72
2023-03-16T14:06:27.495Z,99600.66
2023-03-16T14:09:21.824Z,99603.88
2023-03-16T14:12:17.822Z,99586.78
2023-03-16T14:15:07.286Z,99593.53
2023-03-16T14:18:05.148Z,99590.75
2023-03-16T14:20:54.870Z,99573.19
2023-03-16T14:23:45.312Z,99578.72
2023-03-16T14:26:44.153Z,99582.16
2023-03-16T14:29:31.626Z,99565.81
2023-03-16T14:32:28.397Z,99573.88
2023-03-16T14:35:20.656Z,99574.31
2023-03-16T14:38:27.320Z,99583.44
2023-03-16T14:41:44.030Z,99548.97
2023-03-16T14:44:34.795Z,99571.75
2023-03-16T14:47:25.459Z,99562.31
2023-03-16T14:50:18.043Z,99546.88
2023-03-16T14:53:07.755Z,99560.53
2023-03-16T14:55:58.655Z,99556.78
2023-03-16T14:58:45.818Z,99538.19
2023-03-16T15:01:33.918Z,99553.88
2023-03-16T15:04:28.950Z,99553.69
2023-03-16T15:07:34.640Z,99539.16
2023-03-16T15:10:26.874Z,99553.56
2023-03-16T15:13:53.053Z,99558.13
2023-03-16T15:16:42.629Z,99551.19
2023-03-16T15:19:29.780Z,99545.81
2023-03-16T15:22:24.840Z,99551.75
2023-03-16T15:25:28.140Z,99554.88
2023-03-16T15:28:23.828Z,99542.44
2023-03-16T15:31:12.855Z,99551.47
2023-03-16T15:34:00.065Z,99548.34
2023-03-16T15:36:49.080Z,99542.00
2023-03-16T15:39:37.203Z,99537.75
2023-03-16T15:42:26.063Z,99527.44
2023-03-16T15:45:22.485Z,99547.78
2023-03-16T15:48:11.140Z,99542.28
2023-03-16T15:51:04.369Z,99536.34
2023-03-16T15:53:55.842Z,99516.78
2023-03-16T15:56:53.788Z,99527.38
2023-03-16T15:59:41.910Z,99514.09
2023-03-16T16:02:32.114Z,99527.63
2023-03-16T16:05:19.196Z,99523.41
2023-03-16T16:08:06.701Z,99512.19
2023-03-16T16:10:54.685Z,99520.53
2023-03-16T16:13:45.065Z,99529.66
2023-03-16T16:16:34.409Z,99511.91
2023-03-16T16:19:21.757Z,99520.88
2023-03-16T16:22:13.215Z,99502.09
2023-03-16T16:25:00.286Z,99514.41
2023-03-16T16:27:47.527Z,99520.47
2023-03-16T16:30:34.653Z,99518.44
2023-03-16T16:33:30.339Z,99512.38
2023-03-16T16:36:20.495Z,99522.31
2023-03-16T16:39:07.905Z,99525.53
2023-03-16T16:41:56.974Z,99519.94
2023-03-16T16:44:44.963Z,99535.31
2023-03-16T16:47:32.203Z,99521.97
2023-03-16T16:50:21.724Z,99544.69
2023-03-16T16:53:20.878Z,99538.16
2023-03-16T16:56:13.955Z,99550.28
2023-03-16T16:59:34.448Z,99560.63
2023-03-16T17:02:41.624Z,99564.75
2023-03-16T17:05:30.274Z,99570.53
2023-03-16T17:08:18.489Z,99572.53
2023-03-16T17:11:05.949Z,99564.59
2023-03-16T17:13:54.619Z,99569.41
2023-03-16T17:16:42.357Z,99568.09
2023-03-16T17:19:29.812Z,99571.00
2023-03-16T17:22:25.822Z,99576.25
2023-03-16T17:25:14.891Z,99575.59
2023-03-16T17:28:02.584Z,99558.94
2023-03-16T17:30:50.111Z,99573.63
2023-03-16T17:33:40.811Z,99573.44
2023-03-16T17:36:29.514Z,99589.84
2023-03-16T17:39:28.361Z,99583.22
2023-03-16T17:42:19.387Z,99580.09
2023-03-16T17:45:15.520Z,99596.06
2023-03-16T17:48:06.353Z,99586.94
2023-03-16T17:50:54.839Z,99584.16
2023-03-16T17:53:44.775Z,99589.03
2023-03-16T17:56:34.322Z,99593.53
2023-03-16T17:59:23.831Z,99594.91
2023-03-16T18:02:40.110Z,99594.28
2023-03-16T18:05:34.517Z,99587.31
2023-03-16T18:08:27.689Z,99595.00
2023-03-16T18:11:26.857Z,99589.41
2023-03-16T18:14:35.717Z,99591.59
2023-03-16T18:17:31.537Z,99602.38
2023-03-16T18:20:31.503Z,99593.81
2023-03-16T18:23:30.445Z,99600.28
2023-03-16T18:26:20.224Z,99597.63
2023-03-16T18:29:08.766Z,99583.03
2023-03-16T18:31:58.864Z,99591.28
2023-03-16T18:34:47.287Z,99580.19
2023-03-16T18:37:38.404Z,99587.22
2023-03-16T18:40:27.136Z,99592.06
2023-03-16T18:43:17.911Z,99569.50
2023-03-16T18:46:13.873Z,99589.53
2023-03-16T18:49:08.828Z,99592.47
2023-03-16T18:51:58.364Z,99595.13
2023-03-16T18:54:47.817Z,99602.44
2023-03-16T18:57:35.608Z,99595.41
2023-03-16T19:00:30.420Z,99602.09
2023-03-16T19:03:28.463Z,99606.56
2023-03-16T19:06:28.093Z,99605.03
2023-03-16T19:09:22.145Z,99596.13
2023-03-16T19:12:17.243Z,99601.44
2023-03-16T19:15:19.458Z,99606.50
2023-03-16T19:18:09.626Z,99592.47
2023-03-16T19:20:57.882Z,99596.25
2023-03-16T19:23:56.671Z,99590.56
2023-03-16T19:26:44.835Z,99580.59
2023-03-16T19:29:35.124Z,99577.28
2023-03-16T19:32:23.809Z,99579.38
2023-03-16T19:35:19.877Z,99573.03
2023-03-16T19:38:10.118Z,99578.03
2023-03-16T19:41:01.767Z,99573.34
2023-03-16T19:43:52.334Z,99573.72
2023-03-16T19:46:41.825Z,99584.97
2023-03-16T19:49:31.394Z,99572.19
2023-03-16T19:52:22.335Z,99583.47
2023-03-16T19:55:19.303Z,99580.25
2023-03-16T19:58:08.405Z,99568.22
2023-03-16T20:00:57.336Z,99584.72
2023-03-16T20:03:48.135Z,99584.13
2023-03-16T20:06:36.260Z,99573.41
2023-03-16T20:09:24.242Z,99585.06
2023-03-16T20:12:33.988Z,99574.06
2023-03-16T20:15:23.921Z,99576.63
2023-03-16T20:18:15.168Z,99584.22
2023-03-16T20:21:03.180Z,99567.22
2023-03-16T20:23:52.056Z,99573.25
2023-03-16T20:26:40.701Z,99561.69
2023-03-16T20:29:33.666Z,99557.78
2023-03-16T20:32:25.854Z,99557.41
2023-03-16T20:35:28.983Z,99556.72
2023-03-16T20:38:18.020Z,99554.72
2023-03-16T20:41:27.222Z,99558.84
2023-03-16T20:44:18.723Z,99525.97
2023-03-16T20:47:07.732Z,99538.75
2023-03-16T20:49:58.001Z,99538.66
2023-03-16T20:52:46.709Z,99550.03
2023-03-16T20:55:35.179Z,99545.16
2023-03-16T20:58:31.004Z,99524.66
2023-03-16T21:01:21.746Z,99532.63
2023-03-16T21:04:21.330Z,99538.13
2023-03-16T21:07:09.809Z,99543.34
2023-03-16T21:09:58.117Z,99539.94
2023-03-16T21:12:48.372Z,99538.25
2023-03-16T21:15:35.668Z,99535.25
2023-03-16T21:18:24.360Z,99537.66
2023-03-16T21:21:16.887Z,99531.84
2023-03-16T21:24:04.353Z,99531.00
2023-03-16T21:26:51.518Z,99503.78
2023-03-16T21:29:38.959Z,99518.59
2023-03-16T21:32:28.565Z,99522.41
2023-03-16T21:35:16.512Z,99541.94
2023-03-16T21:38:18.514Z,99544.78
2023-03-16T21:41:05.678Z,99532.16
2023-03-16T21:43:54.540Z,99527.66
2023-03-16T21:46:42.692Z,99529.09
2023-03-16T21:49:29.968Z,99529.94
2023-03-16T21:52:25.538Z,99530.31
2023-03-16T21:55:31.841Z,99515.66
2023-03-16T21:58:19.755Z,99494.19
2023-03-16T22:01:06.817Z,99501.84
2023-03-16T22:04:01.307Z,99516.50
2023-03-16T22:06:48.380Z,99495.47
2023-03-16T22:09:36.207Z,99509.72
2023-03-16T22:12:23.254Z,99503.34
2023-03-16T22:15:10.742Z,99502.41
2023-03-16T22:18:01.821Z,99505.91
2023-03-16T22:20:49.141Z,99475.19
2023-03-16T22:23:37.658Z,99487.91
2023-03-16T22:26:25.948Z,99503.16
2023-03-16T22:29:20.232Z,99502.22
2023-03-16T22:32:14.599Z,99459.47
2023-03-16T22:35:02.928Z,99486.06
2023-03-16T22:37:50.280Z,99483.59
2023-03-16T22:40:39.285Z,99479.13
2023-03-16T22:43:37.841Z,99479.00
2023-03-16T22:46:27.047Z,99466.13
2023-03-16T22:49:21.097Z,99474.19
2023-03-16T22:52:11.362Z,99468.41
2023-03-16T22:55:00.666Z,99479.03
2023-03-16T22:57:51.717Z,99470.50
2023-03-16T23:00:38.976Z,99474.97
2023-03-16T23:03:26.498Z,99470.88
2023-03-16T23:06:20.629Z,99480.31
2023-03-16T23:09:09.810Z,99481.75
2023-03-16T23:11:57.612Z,99463.00
2023-03-16T23:14:44.753Z,99474.38
2023-03-16T23:17:31.829Z,99472.69
2023-03-16T23:20:23.632Z,99463.19
2023-03-16T23:23:11.394Z,99455.63
2023-03-16T23:25:58.594Z,99472.66
2023-03-16T23:28:47.096Z,99473.44
2023-03-16T23:31:35.216Z,99474.81
2023-03-16T23:34:24.397Z,99466.13
2023-03-16T23:37:11.886Z,99462.50
2023-03-16T23:39:59.265Z,99465.81
2023-03-16T23:42:46.978Z,99466.13
2023-03-16T23:45:39.983Z,99478.16
2023-03-16T23:48:27.344Z,99494.66
2023-03-16T23:51:38.213Z,99482.63
2023-03-16T23:54:29.695Z,99470.50
2023-03-16T23:57:17.088Z,99466.13
